AirNav   Air Wisconsin pilot careers
 
 360 users online  

3NO North Omaha Airport
Omaha, Nebraska, USA

GOING TO OMAHA?


FAA INFORMATION EFFECTIVE 09 NOVEMBER 2017

Location

FAA Identifier: 3NO
Lat/Long: 41-22-09.4400N / 096-01-20.9800W
41-22.157333N / 096-01.349667W
41.3692889 / -96.0224944
(estimated)
Elevation: 1324 ft. / 404 m (estimated)
Variation: 06E (1985)
From city: 7 miles NW of OMAHA, NE
Time zone: UTC -6 (UTC -5 during Daylight Saving Time)
Zip code: 68152

Airport Operations

Airport use: Open to the public
Activation date: 05/1947
Control tower: no
ARTCC: MINNEAPOLIS CENTER
FSS: COLUMBUS FLIGHT SERVICE STATION
NOTAMs facility: OLU (NOTAM-D service available)
Attendance: DAWN-DUSK
FOR SERVICE OTHER HRS CALL 402-571-7585.
Wind indicator: lighted
Segmented circle: no
Lights: SS-SR

Airport Communications

CTAF/UNICOM: 122.8
WX AWOS-3 at BTA (5 nm NW): 120.225 (402-426-0448)
WX ASOS at OMA (7 nm SE): PHONE 402-344-0324
WX AWOS-3 at MLE (11 nm S): 118.25 (402-895-6778)
WX AWOS-3 at CBF (14 nm SE): 126.575 (712-323-1542)

Nearby radio navigation aids

VOR radial/distance  VOR name  Freq  Var
OVRr305/17.7OMAHA VORTAC116.3008E
SCBr111/30.7SCRIBNER VOR/DME111.0006E

 
NDB name  Hdg/Dist  Freq  Var  ID
RIKKY309/12.942605EEN . -.
PLATTSMOUTH344/26.032905EPMV .--. -- ...-
WAHOO067/27.140006EAHQ .- .... --.-

Airport Services

Fuel available: 100LL
Parking: hangars and tiedowns
Airframe service: NONE
Powerplant service: NONE
Bottled oxygen: NONE
Bulk oxygen: NONE

Runway Information

Runway 17/35

Dimensions: 3173 x 40 ft. / 967 x 12 m
56 FT EITHER SIDE OF CONC USABLE TURF.
Surface: concrete, in fair condition
Weight bearing capacity: 
Single wheel: 28.0
Runway edge lights: non-standard
Runway edge markings: RWY 17/35 MARKINGS ARE VERY FADED.
Gradient: N
RUNWAY 17  RUNWAY 35
Latitude: 41-22.419000N41-21.896167N
Longitude: 096-01.345167W096-01.354000W
Elevation: 1324.0 ft.1313.0 ft.
Gradient: 0.1%0.3% UP
Traffic pattern: leftright
Markings: numbers only, in poor conditionnumbers only, in poor condition
Obstructions: 23 ft. trees, 750 ft. from runway, 15 ft. right of centerline, 23:1 slope to clear24 ft. trees, 417 ft. from runway, 145 ft. left of centerline, 8:1 slope to clear
APCH RATIO 23:1 TO DSPLCD THLD.

Airport Ownership and Management from official FAA records

Ownership: Privately-owned
Owner: KEITH EDQUIST
12001 N 72ND
OMAHA, NE 68122
Phone (402) 571-7585
Manager: KEITH EDQUIST
12001 N 72ND
OMAHA, NE 68122
Phone (402) 571-7585

Airport Operational Statistics

Aircraft based on the field: 57
Single engine airplanes: 50
Helicopters: 7
    
Aircraft operations: avg 39/day *
91% local general aviation
9% transient general aviation
* for 12-month period ending 04 May 2017

Additional Remarks

NO TOUCH & GO LNDGS ALLOWED.
OVERNIGHT PARKING FEE.
RY 17/35 CLSD TO ACFT 8000 LBS AND OVER.
FOR CD CTC OMAHA APCH AT 402-682-4395.

Instrument Procedures

There are no published instrument procedures at 3NO.

Some nearby airports with instrument procedures:

KBTA - Blair Municipal Airport (5 nm NW)
KOMA - Eppley Airfield (7 nm SE)
KMLE - Millard Airport (11 nm S)
KCBF - Council Bluffs Municipal Airport (14 nm SE)
KOFF - Offutt Air Force Base (16 nm S)
 
Loc | Ops | Rwys | IFR | FBO | Links
Com | Nav | Svcs | Stats | Notes

Silverhawk Aviation, Inc.
AirBoss

 
Area around 3NO (North Omaha Airport)
 
Road maps at: MapQuest Bing Google
 
Aerial photo
WARNING: Photo may not be current or correct
Aerial photo of 3NO (North Omaha Airport)
Photo by William Maxey
Photo taken 12-Sep-2006

Do you have a better or more recent aerial photo of North Omaha Airport that you would like to share? If so, please send us your photo.

 
Sectional chart

 
Airport distance calculator
Flying to North Omaha Airport? Find the distance to fly.

From to 3NO

Sunrise and sunset
Times for 25-Nov-2017
 Local
(UTC-6)
 Zulu
(UTC)
Morning civil twilight06:5512:55
Sunrise07:2513:25
Sunset16:5722:57
Evening civil twilight17:2723:27

Current date and time
Zulu (UTC)  25-Nov-2017 11:37:25
Local (UTC-6)  25-Nov-2017 05:37:25
 
METAR
KBTA 
5nm NW 
250615Z AUTO 29004KT 10SM CLR 05/00 A2998 RMK AO2 T00500004
KOMA 
6nm SE 
251052Z 30003KT 10SM CLR 02/M01 A3007 RMK AO2 SLP185 T00171011
KMLE 
11nm S 
251115Z AUTO 00000KT 10SM CLR 00/00 A3008 RMK AO2 T00021003
KCBF 
13nm SE 
251115Z AUTO 00000KT 10SM CLR 03/02 A3006 RMK AO2
KOFF 
16nm S 
251056Z AUTO 30004KT 10SM CLR 02/M01 A3006 RMK AO2 SLP186 T00191007 $
TAF
KOMA 
6nm SE 
250527Z 2506/2606 28005KT P6SM FEW250
KOFF 
16nm S 
242358Z 2423/2524 32015G25KT 9999 SCT100 QNH2945INS BECMG 2500/2501 32009KT 9999 FEW035 WS020/33035KT QNH2970INS BECMG 2509/2510 VRB06KT 9999 FEW200 QNH3001INS TX19/2423Z TN02/2512Z
NOTAMs
Click for the latest NOTAMs
NOTAMs are issued by the DoD/FAA and will open in a separate window not controlled by AirNav.

 

 
 

FBO, Fuel Providers, and Aircraft Ground Support

  
 Business Name 
 
 Contact 
 
 Services / Description 
 
Fuel Prices
 
Comments
  
North Omaha Airport 402-681-5324
no information available

If you are affiliated with North Omaha Airport and would like to show here your services, contact info, web link, logo, and more, click here
100LL
SS $4.25 
 Updated 12-Oct-2017
 
   1 read write
SS=Self service
Update Fuel Prices
 

Would you like to see your business listed on this page?

 If your business provides an interesting product or service to pilots, flight crews, aircraft, or users of the North Omaha Airport, you should consider listing it here.  To start the listing process, click on the button below
 
Add a business
 

Other Pages about North Omaha Airport

Update a link
 
Copyright © AirNav, LLC. All rights reserved. Privacy Policy  Contact